Time;durP1;ratioP1;P1;durP2;ratioP2;P2;SDS_P1;SDS_P2;PMS_P1;PMS_P2;Temp;Humidity;BMP_temperature;BMP_pressure;BME280_temperature;BME280_humidity;BME280_pressure;Samples;Min_cycle;Max_cycle;Signal;HPM_P1;HPM_P2
2021/08/30 00:00:39;;;;;;;2.38;1.42;;;16.50;89.50;;;;;;5114657;28;20035;-78
2021/08/30 00:03:04;;;;;;;1.95;1.30;;;16.40;89.50;;;;;;5078961;28;20050;-79
2021/08/30 00:05:30;;;;;;;2.13;1.30;;;16.40;89.50;;;;;;5114012;28;20038;-79
2021/08/30 00:07:56;;;;;;;3.15;1.60;;;16.30;89.50;;;;;;5096070;28;20039;-78
2021/08/30 00:10:22;;;;;;;1.90;1.30;;;16.50;89.70;;;;;;5062590;28;20035;-78
2021/08/30 00:12:48;;;;;;;1.83;1.15;;;16.40;89.70;;;;;;5079389;28;20057;-79
2021/08/30 00:15:15;;;;;;;1.40;0.90;;;16.40;89.70;;;;;;5061816;28;20541;-78
2021/08/30 00:17:41;;;;;;;1.83;1.30;;;16.30;89.60;;;;;;5094567;28;20032;-79
2021/08/30 00:20:11;;;;;;;2.17;1.45;;;16.30;89.70;;;;;;5095643;28;20493;-78
2021/08/30 00:22:37;;;;;;;2.50;1.58;;;16.30;89.70;;;;;;5095833;28;20101;-78
2021/08/30 00:25:04;;;;;;;1.80;1.40;;;16.30;89.70;;;;;;5095613;28;20040;-78
2021/08/30 00:27:30;;;;;;;2.10;1.15;;;16.30;89.70;;;;;;5062086;28;20518;-78
2021/08/30 00:29:56;;;;;;;2.47;1.10;;;16.30;89.70;;;;;;5096652;28;20071;-79
2021/08/30 00:32:22;;;;;;;1.60;1.05;;;16.20;89.70;;;;;;5095663;28;20046;-79
2021/08/30 00:34:49;;;;;;;2.92;1.25;;;16.30;89.80;;;;;;5078692;28;20392;-78
2021/08/30 00:37:15;;;;;;;2.10;1.20;;;16.20;89.80;;;;;;5076814;28;20112;-79
2021/08/30 00:39:40;;;;;;;1.33;1.10;;;16.10;89.80;;;;;;5113488;28;20067;-78
2021/08/30 00:42:07;;;;;;;2.30;1.27;;;16.20;89.80;;;;;;5095390;28;20367;-79
2021/08/30 00:44:36;;;;;;;1.80;1.33;;;16.20;89.80;;;;;;5095458;28;20039;-78
2021/08/30 00:47:02;;;;;;;2.17;1.20;;;16.20;89.80;;;;;;5095526;28;20503;-78
2021/08/30 00:49:27;;;;;;;2.38;1.42;;;16.20;89.90;;;;;;5113361;28;20119;-78
2021/08/30 00:51:55;;;;;;;2.42;1.30;;;16.20;89.80;;;;;;5113851;28;20044;-79
2021/08/30 00:54:22;;;;;;;1.50;0.98;;;16.30;89.90;;;;;;5094993;28;20052;-79
2021/08/30 00:56:48;;;;;;;1.52;1.10;;;16.20;89.90;;;;;;5077968;28;20035;-79
2021/08/30 00:59:14;;;;;;;1.98;1.30;;;16.20;89.90;;;;;;5095181;28;20032;-79
2021/08/30 01:01:42;;;;;;;1.50;1.05;;;16.20;89.90;;;;;;5113783;28;20500;-79
2021/08/30 01:04:10;;;;;;;2.72;1.55;;;16.20;89.90;;;;;;5095524;28;20055;-79
2021/08/30 01:06:44;;;;;;;1.73;1.40;;;16.20;89.90;;;;;;5061793;28;20036;-78
2021/08/30 01:09:31;;;;;;;1.35;1.15;;;16.20;89.80;;;;;;5076350;28;20047;-78
2021/08/30 01:12:08;;;;;;;1.40;1.10;;;16.20;89.80;;;;;;5095255;28;20044;-78
2021/08/30 01:14:38;;;;;;;1.55;1.20;;;16.30;89.70;;;;;;5094683;28;20038;-78
2021/08/30 01:17:05;;;;;;;1.98;1.30;;;16.30;89.70;;;;;;5094079;28;20038;-78
2021/08/30 01:19:37;;;;;;;2.10;1.27;;;16.30;89.70;;;;;;5077719;28;20528;-78
2021/08/30 01:22:05;;;;;;;1.10;1.00;;;16.30;89.70;;;;;;5094704;28;20134;-78
2021/08/30 01:24:32;;;;;;;2.75;1.15;;;16.30;89.70;;;;;;5094761;28;20043;-78
2021/08/30 01:26:59;;;;;;;1.52;1.05;;;16.30;89.70;;;;;;5077729;28;20040;-78
2021/08/30 01:29:33;;;;;;;2.15;1.38;;;16.30;89.70;;;;;;5112633;28;20040;-79
2021/08/30 01:32:06;;;;;;;1.27;0.95;;;16.30;89.70;;;;;;5095266;28;20044;-78
2021/08/30 01:34:33;;;;;;;1.10;0.90;;;16.30;89.70;;;;;;5095191;28;20046;-78
2021/08/30 01:36:59;;;;;;;1.63;1.10;;;16.30;89.70;;;;;;5077710;28;20419;-78
2021/08/30 01:39:33;;;;;;;1.45;1.10;;;16.40;89.80;;;;;;5094596;28;20039;-79
2021/08/30 01:42:01;;;;;;;2.10;1.10;;;16.40;89.80;;;;;;5113465;28;20565;-79
2021/08/30 01:44:28;;;;;;;1.73;1.13;;;16.40;89.80;;;;;;5077559;28;20067;-78
2021/08/30 01:46:56;;;;;;;1.75;1.10;;;16.40;89.70;;;;;;5094735;28;20536;-78
2021/08/30 01:49:26;;;;;;;1.85;1.33;;;16.30;89.70;;;;;;5116193;28;20537;-78
2021/08/30 01:51:53;;;;;;;1.85;1.20;;;16.40;89.80;;;;;;5079950;28;20573;-78
2021/08/30 01:54:20;;;;;;;3.47;1.63;;;16.40;89.70;;;;;;5098070;28;20112;-78
2021/08/30 01:56:50;;;;;;;1.85;1.30;;;16.40;89.70;;;;;;5079261;28;20047;-78
2021/08/30 02:02:00;;;;;;;2.25;1.40;;;16.40;89.60;;;;;;5085807;28;20047;-78
2021/08/30 02:04:26;;;;;;;1.77;1.30;;;16.50;89.70;;;;;;5116093;28;20620;-78
2021/08/30 02:06:52;;;;;;;1.67;1.38;;;16.40;89.60;;;;;;5115913;28;20118;-78
2021/08/30 02:09:17;;;;;;;1.85;1.30;;;16.50;89.60;;;;;;5064146;28;20377;-78
2021/08/30 02:11:43;;;;;;;2.45;1.25;;;16.50;89.70;;;;;;5097357;28;20039;-79
2021/08/30 02:14:09;;;;;;;2.45;1.33;;;16.50;89.60;;;;;;5080834;28;20040;-79
2021/08/30 02:16:36;;;;;;;2.05;1.30;;;16.50;89.60;;;;;;5079332;28;20070;-78
2021/08/30 02:19:14;;;;;;;1.52;1.20;;;16.50;89.60;;;;;;5062222;28;20439;-78
2021/08/30 02:21:43;;;;;;;2.20;1.50;;;16.50;89.70;;;;;;5113789;28;20473;-78
2021/08/30 02:24:26;;;;;;;1.98;1.23;;;16.50;89.60;;;;;;5097824;28;20504;-78
2021/08/30 02:27:07;;;;;;;1.52;1.20;;;16.50;89.70;;;;;;5116042;28;20112;-78
2021/08/30 02:29:56;;;;;;;2.50;1.50;;;16.60;89.70;;;;;;5115634;28;20035;-78
2021/08/30 02:32:24;;;;;;;2.13;1.27;;;16.50;89.60;;;;;;5100213;28;20104;-79
2021/08/30 02:34:55;;;;;;;3.08;1.40;;;16.50;89.60;;;;;;5097721;28;20032;-79
2021/08/30 02:37:24;;;;;;;2.10;1.40;;;16.50;89.60;;;;;;5079129;28;20043;-78
2021/08/30 02:39:53;;;;;;;1.77;1.10;;;16.50;89.60;;;;;;5097684;28;20069;-79
2021/08/30 02:42:19;;;;;;;4.18;1.30;;;16.50;89.60;;;;;;5097317;28;20051;-79
2021/08/30 02:44:46;;;;;;;1.98;1.45;;;16.50;89.60;;;;;;5096715;28;20145;-78
2021/08/30 02:47:15;;;;;;;2.17;1.60;;;16.50;89.60;;;;;;5115227;28;20108;-79
2021/08/30 02:49:42;;;;;;;2.50;1.60;;;16.50;89.60;;;;;;5080075;28;20401;-79
2021/08/30 02:52:11;;;;;;;2.70;1.30;;;16.50;89.60;;;;;;5095410;28;20126;-79
2021/08/30 02:54:38;;;;;;;2.53;1.50;;;16.50;89.60;;;;;;5095611;28;20382;-79
2021/08/30 02:57:06;;;;;;;2.35;1.48;;;16.50;89.60;;;;;;5096933;28;20028;-79
2021/08/30 02:59:32;;;;;;;2.50;1.63;;;16.50;89.60;;;;;;5114974;28;20055;-79
2021/08/30 03:02:00;;;;;;;1.58;1.25;;;16.50;89.60;;;;;;5096989;28;20040;-79
2021/08/30 03:04:26;;;;;;;2.60;1.50;;;16.50;89.60;;;;;;5095950;28;20036;-79
2021/08/30 03:06:54;;;;;;;1.58;1.40;;;16.50;89.60;;;;;;5115598;28;20046;-79
2021/08/30 03:09:19;;;;;;;1.98;1.33;;;16.50;89.60;;;;;;5080197;28;20516;-79
2021/08/30 03:11:48;;;;;;;2.13;1.48;;;16.50;89.60;;;;;;5078959;28;20068;-79
2021/08/30 03:14:18;;;;;;;2.33;1.42;;;16.50;89.70;;;;;;5114813;28;20074;-79
2021/08/30 03:16:44;;;;;;;1.42;1.10;;;16.40;89.60;;;;;;5080263;28;20067;-79
2021/08/30 03:19:13;;;;;;;2.60;1.40;;;16.50;89.70;;;;;;5096995;28;20032;-79
2021/08/30 03:21:40;;;;;;;1.25;1.10;;;16.50;89.80;;;;;;5094715;28;20498;-79
2021/08/30 03:24:07;;;;;;;1.70;1.10;;;16.50;89.70;;;;;;5079407;28;20460;-79
2021/08/30 03:26:35;;;;;;;1.55;1.17;;;16.50;89.80;;;;;;5079574;28;20542;-79
2021/08/30 03:29:01;;;;;;;2.03;1.58;;;16.50;89.80;;;;;;5095962;28;20501;-79
2021/08/30 03:31:30;;;;;;;3.03;1.70;;;16.50;89.80;;;;;;5114895;28;20052;-79
2021/08/30 03:33:57;;;;;;;2.30;1.60;;;16.40;89.70;;;;;;5096895;28;20446;-79
2021/08/30 03:36:25;;;;;;;2.65;1.70;;;16.40;89.70;;;;;;5097318;28;20040;-79
2021/08/30 03:38:51;;;;;;;1.67;1.33;;;16.40;89.80;;;;;;5097135;28;20184;-79
2021/08/30 03:41:19;;;;;;;2.25;1.45;;;16.50;89.80;;;;;;5115194;28;20054;-79
2021/08/30 03:43:46;;;;;;;2.13;1.33;;;16.50;89.80;;;;;;5096791;28;20042;-79
2021/08/30 03:46:13;;;;;;;3.33;1.55;;;16.50;89.90;;;;;;5096563;28;20044;-79
2021/08/30 03:48:39;;;;;;;2.08;1.40;;;16.50;89.90;;;;;;5115094;28;20035;-79
2021/08/30 03:51:06;;;;;;;2.60;1.45;;;16.50;89.90;;;;;;5095912;28;20382;-79
2021/08/30 03:53:34;;;;;;;3.03;1.70;;;16.50;89.90;;;;;;5062947;28;20040;-78
2021/08/30 03:56:02;;;;;;;1.83;1.48;;;16.40;89.80;;;;;;5095033;28;20036;-79
2021/08/30 03:58:30;;;;;;;3.55;1.90;;;16.50;89.90;;;;;;5096271;28;20050;-81
2021/08/30 04:00:57;;;;;;;2.17;1.48;;;16.50;89.90;;;;;;5096378;28;20044;-79
2021/08/30 04:03:23;;;;;;;2.22;1.48;;;16.50;89.80;;;;;;5095388;28;20528;-79
2021/08/30 04:05:51;;;;;;;1.92;1.50;;;16.60;89.90;;;;;;5078631;28;20410;-80
2021/08/30 04:08:17;;;;;;;1.67;1.30;;;16.50;89.80;;;;;;5096561;28;20093;-80
2021/08/30 04:10:43;;;;;;;2.35;1.40;;;16.50;89.80;;;;;;5095099;28;20040;-80
2021/08/30 04:13:09;;;;;;;2.63;1.60;;;16.50;89.80;;;;;;5096517;28;20052;-80
2021/08/30 04:15:35;;;;;;;2.63;1.50;;;16.50;89.80;;;;;;5096197;28;20039;-80
2021/08/30 04:18:00;;;;;;;2.22;1.40;;;16.50;89.80;;;;;;5077785;28;20043;-79
2021/08/30 04:20:27;;;;;;;2.60;1.92;;;16.60;89.90;;;;;;5096458;28;20042;-79
2021/08/30 04:22:52;;;;;;;3.30;1.73;;;16.50;89.80;;;;;;5079176;28;20043;-79
2021/08/30 04:25:18;;;;;;;3.90;2.15;;;16.50;89.80;;;;;;5096428;28;20200;-79
2021/08/30 04:27:44;;;;;;;3.20;2.00;;;16.50;89.80;;;;;;5095988;28;20507;-79
2021/08/30 04:30:10;;;;;;;4.38;2.15;;;16.60;89.90;;;;;;5095803;28;20058;-79
2021/08/30 04:32:37;;;;;;;2.45;1.85;;;16.50;89.80;;;;;;5113919;28;20082;-79
2021/08/30 04:35:07;;;;;;;3.45;2.13;;;16.60;89.80;;;;;;5094147;28;20379;-79
2021/08/30 04:37:32;;;;;;;3.10;1.80;;;16.60;89.80;;;;;;5114260;28;20040;-79
2021/08/30 04:39:58;;;;;;;4.18;2.00;;;16.60;89.80;;;;;;5095821;28;20035;-79
2021/08/30 04:42:24;;;;;;;3.20;1.85;;;16.60;89.80;;;;;;5096716;28;20420;-80
2021/08/30 04:44:53;;;;;;;2.28;1.63;;;16.70;89.90;;;;;;5115067;28;20048;-80
2021/08/30 04:47:18;;;;;;;2.55;1.60;;;16.70;89.90;;;;;;5096602;28;20067;-80
2021/08/30 04:49:44;;;;;;;2.70;1.60;;;16.60;89.90;;;;;;5095756;28;20512;-79
2021/08/30 04:52:10;;;;;;;3.47;1.52;;;16.70;90.20;;;;;;5115327;28;20485;-79
2021/08/30 04:54:36;;;;;;;2.42;1.50;;;16.60;89.90;;;;;;5096543;28;20071;-79
2021/08/30 04:57:01;;;;;;;2.45;1.50;;;16.60;89.90;;;;;;5114447;28;20103;-79
2021/08/30 04:59:27;;;;;;;2.75;1.67;;;16.60;89.90;;;;;;5095436;28;20043;-79
2021/08/30 05:01:53;;;;;;;3.10;1.67;;;16.70;90.00;;;;;;5113917;28;20064;-79
2021/08/30 05:04:18;;;;;;;2.53;1.63;;;16.70;90.00;;;;;;5078747;28;20520;-79
2021/08/30 05:06:44;;;;;;;2.70;1.67;;;16.70;90.00;;;;;;5061694;28;20530;-79
2021/08/30 05:09:10;;;;;;;3.30;1.80;;;16.70;89.90;;;;;;5094755;28;20063;-79
2021/08/30 05:11:38;;;;;;;1.98;1.42;;;16.70;90.00;;;;;;5095632;28;20044;-80
2021/08/30 05:14:04;;;;;;;3.15;1.45;;;16.70;89.90;;;;;;5095813;28;20055;-79
2021/08/30 05:16:30;;;;;;;4.57;2.40;;;16.70;89.90;;;;;;5078811;28;20040;-79
2021/08/30 05:18:56;;;;;;;3.38;2.00;;;16.80;90.00;;;;;;5094039;28;20036;-79
2021/08/30 05:21:22;;;;;;;4.25;2.35;;;16.70;89.90;;;;;;5094930;28;20035;-80
2021/08/30 05:23:47;;;;;;;2.78;1.77;;;16.70;89.90;;;;;;5094163;28;20449;-79
2021/08/30 05:26:13;;;;;;;3.58;2.28;;;16.90;90.00;;;;;;5113189;28;20067;-81
2021/08/30 05:28:39;;;;;;;2.92;1.70;;;16.70;89.90;;;;;;5113759;28;20516;-79
2021/08/30 05:31:04;;;;;;;2.47;1.70;;;16.80;90.00;;;;;;5095195;28;20123;-78
2021/08/30 05:33:31;;;;;;;2.72;1.70;;;16.80;89.90;;;;;;5092845;28;20063;-79
2021/08/30 05:36:00;;;;;;;3.05;1.80;;;16.80;89.80;;;;;;5057951;28;20393;-79
2021/08/30 05:38:25;;;;;;;2.63;1.50;;;16.90;89.90;;;;;;5049438;28;20045;-79
2021/08/30 05:40:51;;;;;;;3.35;2.10;;;16.90;89.90;;;;;;5033756;28;20044;-80
2021/08/30 05:43:17;;;;;;;3.08;1.80;;;16.90;89.90;;;;;;5034975;28;20044;-80
2021/08/30 05:45:42;;;;;;;2.83;1.77;;;16.90;89.90;;;;;;5036095;28;20052;-80
2021/08/30 05:48:08;;;;;;;3.28;1.73;;;16.90;89.80;;;;;;5001663;28;20079;-78
2021/08/30 05:50:34;;;;;;;2.95;1.70;;;17.00;89.90;;;;;;5017774;28;20049;-79
2021/08/30 05:53:00;;;;;;;2.65;1.63;;;17.00;89.80;;;;;;5017219;28;20037;-79
2021/08/30 05:55:25;;;;;;;2.95;1.67;;;17.00;89.70;;;;;;5034183;28;20083;-80
2021/08/30 05:57:51;;;;;;;2.63;1.52;;;17.10;89.70;;;;;;5050204;28;20036;-79
2021/08/30 06:00:17;;;;;;;3.00;1.55;;;17.00;89.70;;;;;;5050422;28;20524;-80
2021/08/30 06:02:43;;;;;;;3.03;1.80;;;17.10;89.70;;;;;;5033513;28;20057;-80
2021/08/30 06:05:10;;;;;;;2.30;1.45;;;17.10;89.60;;;;;;4998722;28;20047;-80
2021/08/30 06:07:36;;;;;;;3.25;1.60;;;17.10;89.60;;;;;;5049778;28;20392;-79
2021/08/30 06:10:01;;;;;;;2.85;1.80;;;17.10;89.60;;;;;;5031012;28;20049;-79
2021/08/30 06:12:27;;;;;;;2.03;1.33;;;17.30;89.70;;;;;;5057883;28;20033;-79
2021/08/30 06:14:53;;;;;;;3.33;1.80;;;17.20;89.60;;;;;;5074369;28;20036;-80
2021/08/30 06:17:19;;;;;;;2.13;1.35;;;17.20;89.60;;;;;;5092178;28;20036;-79
2021/08/30 06:19:44;;;;;;;3.22;1.63;;;17.30;89.60;;;;;;5073720;28;20051;-80
2021/08/30 06:22:10;;;;;;;3.03;1.50;;;17.30;89.60;;;;;;5074500;28;20075;-79
2021/08/30 06:24:40;;;;;;;2.67;1.70;;;17.30;89.50;;;;;;5039864;28;20399;-79
2021/08/30 06:27:07;;;;;;;2.00;1.50;;;17.30;89.40;;;;;;5058401;28;20043;-79
2021/08/30 06:29:32;;;;;;;2.15;1.30;;;17.40;89.40;;;;;;5073811;28;20040;-78
2021/08/30 06:31:58;;;;;;;3.50;1.77;;;17.40;89.40;;;;;;5057093;28;20055;-78
2021/08/30 06:34:26;;;;;;;3.03;1.58;;;17.40;89.40;;;;;;5074368;28;20052;-79
2021/08/30 06:36:53;;;;;;;3.08;1.60;;;17.40;89.40;;;;;;5095549;28;20121;-78
2021/08/30 06:39:19;;;;;;;3.17;1.70;;;17.40;90.00;;;;;;5047822;28;20123;-81
2021/08/30 06:41:45;;;;;;;3.65;1.92;;;17.40;89.40;;;;;;5115344;28;20035;-80
2021/08/30 06:44:10;;;;;;;4.32;1.90;;;17.40;89.40;;;;;;5094597;28;20111;-80
2021/08/30 06:46:36;;;;;;;4.00;2.05;;;17.50;89.40;;;;;;5091182;28;20024;-81
2021/08/30 06:49:03;;;;;;;2.67;1.60;;;17.60;89.30;;;;;;5077539;28;20090;-78
2021/08/30 06:51:28;;;;;;;3.63;2.10;;;17.60;89.20;;;;;;5112466;28;20052;-80
2021/08/30 06:53:54;;;;;;;3.60;1.75;;;17.60;89.20;;;;;;5077487;28;20048;-79
2021/08/30 06:56:20;;;;;;;3.70;2.03;;;17.70;89.20;;;;;;5060521;28;20033;-79
2021/08/30 06:58:45;;;;;;;3.17;1.60;;;17.70;89.10;;;;;;5047238;28;20394;-79
2021/08/30 07:01:11;;;;;;;2.72;1.77;;;17.80;89.00;;;;;;5062116;28;20973;-80
2021/08/30 07:03:37;;;;;;;3.60;2.10;;;17.90;89.00;;;;;;5077057;28;20048;-80
2021/08/30 07:06:03;;;;;;;2.65;1.80;;;17.80;88.80;;;;;;5105518;28;20040;-80
2021/08/30 07:08:29;;;;;;;3.13;1.70;;;17.80;88.80;;;;;;5110348;28;20055;-79
2021/08/30 07:10:54;;;;;;;2.47;1.40;;;17.80;88.80;;;;;;5104664;28;20040;-79
2021/08/30 07:13:20;;;;;;;3.08;1.50;;;17.80;88.80;;;;;;5060183;28;20047;-79
2021/08/30 07:15:47;;;;;;;2.50;1.67;;;17.90;88.90;;;;;;5061381;28;20144;-80
2021/08/30 07:18:14;;;;;;;3.40;2.00;;;17.90;88.90;;;;;;5047178;28;20417;-80
2021/08/30 07:20:41;;;;;;;3.70;2.20;;;17.90;89.60;;;;;;5094807;28;20032;-80
2021/08/30 07:23:07;;;;;;;3.70;2.05;;;17.90;88.90;;;;;;5077711;28;20048;-81
2021/08/30 07:25:33;;;;;;;2.42;1.70;;;17.90;88.90;;;;;;5060298;28;20040;-82
2021/08/30 07:27:59;;;;;;;3.85;1.90;;;17.90;89.00;;;;;;5060026;28;20052;-81
2021/08/30 07:30:25;;;;;;;3.30;2.00;;;18.00;89.00;;;;;;5055340;28;20059;-82
2021/08/30 07:32:51;;;;;;;2.72;2.03;;;18.00;88.90;;;;;;5072952;28;20044;-78
2021/08/30 07:35:16;;;;;;;3.63;2.17;;;18.00;88.90;;;;;;5097871;28;20089;-80
2021/08/30 07:37:42;;;;;;;3.38;1.88;;;18.10;88.90;;;;;;5060025;28;20048;-78
2021/08/30 07:40:09;;;;;;;4.00;2.13;;;18.10;88.80;;;;;;5043288;28;20074;-77
2021/08/30 07:42:35;;;;;;;3.10;2.00;;;18.10;88.80;;;;;;5077854;28;20086;-82
2021/08/30 07:45:24;;;;;;;3.72;1.90;;;18.20;88.70;;;;;;5068546;28;20036;-84
2021/08/30 07:47:57;;;;;;;3.75;2.10;;;18.20;88.70;;;;;;5067148;28;20048;-84
2021/08/30 07:50:30;;;;;;;2.83;2.00;;;18.30;88.60;;;;;;5038791;28;20033;-84
2021/08/30 07:52:56;;;;;;;2.55;1.77;;;18.30;88.40;;;;;;4995566;28;20154;-82
2021/08/30 07:55:37;;;;;;;3.90;2.10;;;18.40;88.30;;;;;;4979695;28;20041;-82
2021/08/30 07:58:32;;;;;;;3.35;2.00;;;18.40;88.30;;;;;;4977787;28;20046;-84
2021/08/30 08:01:46;;;;;;;3.45;2.20;;;18.50;88.30;;;;;;4939137;29;20067;-85
2021/08/30 08:04:15;;;;;;;3.28;1.90;;;18.60;88.00;;;;;;4841674;29;20125;-83
2021/08/30 08:06:48;;;;;;;3.50;1.90;;;18.60;87.90;;;;;;4858346;29;20052;-83
2021/08/30 08:09:14;;;;;;;3.58;2.00;;;18.60;87.90;;;;;;4854152;29;20045;-83
2021/08/30 08:11:53;;;;;;;2.72;1.95;;;18.70;87.90;;;;;;4840026;29;20082;-83
2021/08/30 08:14:28;;;;;;;2.38;1.70;;;18.50;88.00;;;;;;4859083;29;20069;-84
2021/08/30 08:16:56;;;;;;;3.22;2.05;;;18.60;88.10;;;;;;4806172;29;20585;-86
2021/08/30 08:19:54;;;;;;;3.78;2.33;;;18.60;88.20;;;;;;4835468;29;20511;-81
2021/08/30 08:26:32;;;;;;;3.22;1.83;;;18.50;88.40;;;;;;4815104;29;20130;-84
2021/08/30 08:28:58;;;;;;;2.15;1.70;;;18.40;88.50;;;;;;4841286;29;20069;-83
2021/08/30 08:31:26;;;;;;;2.70;1.92;;;18.40;88.50;;;;;;4836847;29;20082;-83
2021/08/30 08:33:52;;;;;;;2.67;1.95;;;18.50;88.50;;;;;;4838269;29;20135;-82
2021/08/30 08:36:20;;;;;;;3.28;1.98;;;18.50;88.40;;;;;;4844920;29;20119;-80
2021/08/30 08:38:47;;;;;;;2.58;1.98;;;18.60;88.20;;;;;;4858972;29;20066;-82
2021/08/30 08:41:17;;;;;;;3.63;2.30;;;18.80;88.10;;;;;;4859207;29;20108;-84
2021/08/30 08:43:43;;;;;;;3.10;2.10;;;18.80;87.60;;;;;;4871107;29;20048;-82
2021/08/30 08:46:09;;;;;;;3.90;2.45;;;19.00;87.50;;;;;;4887900;29;20056;-84
2021/08/30 08:48:35;;;;;;;4.45;2.45;;;19.20;87.20;;;;;;4919607;29;20048;-83
2021/08/30 08:51:01;;;;;;;3.20;2.00;;;19.40;86.90;;;;;;4917738;29;20048;-82
2021/08/30 08:53:36;;;;;;;3.58;2.30;;;19.60;86.50;;;;;;4903709;29;20103;-85
2021/08/30 08:56:03;;;;;;;3.50;2.22;;;19.60;86.40;;;;;;4939911;28;20046;-88
2021/08/30 08:58:41;;;;;;;3.97;2.53;;;19.80;86.20;;;;;;4879177;29;20059;-86
2021/08/30 09:01:36;;;;;;;4.05;2.60;;;19.90;86.00;;;;;;4834161;29;20050;-85
2021/08/30 09:04:10;;;;;;;2.90;2.00;;;20.00;85.80;;;;;;4817473;29;20121;-83
2021/08/30 09:06:40;;;;;;;3.55;2.10;;;20.00;85.70;;;;;;4807046;29;20081;-83
2021/08/30 09:09:14;;;;;;;3.88;2.47;;;20.00;85.30;;;;;;4822957;29;20081;-83
2021/08/30 09:11:51;;;;;;;3.88;2.45;;;20.20;85.20;;;;;;4837226;29;20085;-83
2021/08/30 09:14:20;;;;;;;2.95;2.17;;;20.20;85.40;;;;;;4849507;29;20064;-79
2021/08/30 09:16:49;;;;;;;3.28;2.08;;;20.30;85.30;;;;;;4874360;29;20537;-79
2021/08/30 09:19:17;;;;;;;3.42;2.33;;;20.30;85.10;;;;;;4860182;29;20068;-78
2021/08/30 09:21:47;;;;;;;5.07;2.40;;;20.30;85.00;;;;;;4858429;29;20132;-81
2021/08/30 09:24:16;;;;;;;3.40;2.20;;;20.30;84.90;;;;;;4859174;29;20067;-81
2021/08/30 09:26:48;;;;;;;2.92;1.95;;;20.20;85.10;;;;;;4874113;29;20094;-79
2021/08/30 09:29:19;;;;;;;2.85;1.88;;;20.20;85.30;;;;;;4947683;28;20037;-80
2021/08/30 09:31:58;;;;;;;3.72;2.10;;;20.00;85.40;;;;;;5047200;28;20053;-81
2021/08/30 09:34:29;;;;;;;2.40;1.67;;;20.10;85.60;;;;;;5072708;28;20053;-79
2021/08/30 09:36:55;;;;;;;2.60;1.80;;;20.00;85.70;;;;;;5058551;28;20054;-80
2021/08/30 09:39:21;;;;;;;2.40;1.70;;;19.90;85.80;;;;;;5074372;28;20051;-79
2021/08/30 09:41:47;;;;;;;2.20;1.67;;;19.90;85.90;;;;;;5092060;28;20394;-81
2021/08/30 09:44:13;;;;;;;3.35;2.00;;;20.10;86.00;;;;;;5070344;28;20045;-80
2021/08/30 09:46:39;;;;;;;3.40;2.25;;;20.20;85.50;;;;;;5060980;28;20138;-81
2021/08/30 09:49:06;;;;;;;2.75;2.05;;;20.40;85.00;;;;;;5058373;28;20083;-79
2021/08/30 09:51:37;;;;;;;2.83;2.00;;;20.50;84.60;;;;;;5094750;28;20040;-78
2021/08/30 09:54:03;;;;;;;3.10;1.73;;;20.50;84.40;;;;;;5075778;28;20053;-81
2021/08/30 09:56:32;;;;;;;2.08;1.60;;;20.50;84.40;;;;;;5041572;28;20044;-79
2021/08/30 09:58:59;;;;;;;3.38;2.00;;;20.50;84.30;;;;;;5095367;28;20036;-82
2021/08/30 10:01:26;;;;;;;3.20;1.95;;;20.60;84.20;;;;;;5042203;28;20097;-83
2021/08/30 10:03:51;;;;;;;2.65;1.90;;;20.50;84.00;;;;;;5058136;28;20041;-82
2021/08/30 10:06:18;;;;;;;2.38;1.80;;;20.60;83.90;;;;;;5068990;28;20044;-82
2021/08/30 10:08:44;;;;;;;2.63;1.83;;;20.60;83.90;;;;;;5084494;28;20484;-80
2021/08/30 10:11:10;;;;;;;3.38;2.10;;;20.40;83.90;;;;;;5082229;28;20040;-80
2021/08/30 10:13:37;;;;;;;3.20;1.85;;;20.40;84.10;;;;;;5097992;28;20042;-79
2021/08/30 10:16:04;;;;;;;2.53;2.00;;;20.40;84.20;;;;;;5101873;28;20091;-79
2021/08/30 10:18:30;;;;;;;3.03;2.08;;;20.40;84.20;;;;;;5095823;28;20073;-79
2021/08/30 10:20:55;;;;;;;3.75;1.90;;;20.40;84.10;;;;;;5077664;28;20439;-79
2021/08/30 10:23:22;;;;;;;2.88;1.90;;;20.50;84.20;;;;;;5073749;28;20041;-79
2021/08/30 10:25:58;;;;;;;2.35;1.63;;;20.50;84.10;;;;;;5058059;28;20482;-80
2021/08/30 10:28:35;;;;;;;3.05;2.00;;;20.60;83.90;;;;;;5077299;28;20075;-79
2021/08/30 10:31:00;;;;;;;3.28;1.95;;;20.70;84.20;;;;;;5060836;28;20051;-79
2021/08/30 10:33:35;;;;;;;2.33;1.60;;;20.80;83.20;;;;;;5095229;28;20036;-79
2021/08/30 10:36:12;;;;;;;3.55;2.05;;;21.00;82.80;;;;;;5077038;28;20124;-80
2021/08/30 10:38:38;;;;;;;2.65;1.75;;;21.00;82.60;;;;;;5056672;28;20036;-79
2021/08/30 10:41:15;;;;;;;3.13;2.10;;;21.00;82.70;;;;;;5077647;28;20130;-79
2021/08/30 10:43:43;;;;;;;2.85;1.90;;;21.10;82.40;;;;;;5095363;28;20067;-80
2021/08/30 10:46:15;;;;;;;3.42;2.05;;;21.00;82.20;;;;;;5072313;28;20040;-79
2021/08/30 10:48:50;;;;;;;2.15;1.63;;;21.00;82.10;;;;;;5094423;28;20036;-80
2021/08/30 10:51:20;;;;;;;2.33;1.75;;;21.00;82.10;;;;;;5080557;28;20044;-78
2021/08/30 10:54:05;;;;;;;2.17;1.60;;;21.00;82.30;;;;;;5062040;28;20040;-80
2021/08/30 10:56:32;;;;;;;2.67;1.80;;;21.00;82.40;;;;;;5077871;28;20100;-78
2021/08/30 10:59:06;;;;;;;2.75;1.65;;;20.90;82.50;;;;;;5078068;28;20036;-76
2021/08/30 11:01:34;;;;;;;2.13;1.55;;;21.00;82.70;;;;;;5077035;28;20044;-77
2021/08/30 11:04:01;;;;;;;2.05;1.50;;;21.10;82.40;;;;;;5095153;28;20032;-78
2021/08/30 11:06:27;;;;;;;2.60;1.80;;;21.20;82.00;;;;;;5095409;28;20048;-79
2021/08/30 11:08:53;;;;;;;2.60;1.35;;;21.30;81.60;;;;;;5095614;28;20059;-79
2021/08/30 11:11:21;;;;;;;1.42;1.27;;;21.40;81.20;;;;;;5060669;28;20048;-79
2021/08/30 11:14:10;;;;;;;2.53;1.60;;;21.50;81.10;;;;;;5060187;28;20398;-79
2021/08/30 11:16:38;;;;;;;2.03;1.52;;;21.50;81.20;;;;;;5076822;28;20061;-78
2021/08/30 11:19:07;;;;;;;2.78;1.40;;;21.50;81.10;;;;;;5060234;28;20122;-79
2021/08/30 11:21:39;;;;;;;2.85;1.50;;;21.40;81.10;;;;;;5094647;28;20040;-79
2021/08/30 11:24:07;;;;;;;2.17;1.55;;;21.30;81.10;;;;;;5059782;28;20048;-79
2021/08/30 11:26:36;;;;;;;2.83;1.50;;;21.30;81.20;;;;;;5094967;28;20075;-80
2021/08/30 11:29:06;;;;;;;1.90;1.60;;;21.40;81.40;;;;;;5060238;28;20455;-78
2021/08/30 11:31:39;;;;;;;2.17;1.50;;;21.50;81.20;;;;;;5044179;28;20040;-80
2021/08/30 11:34:06;;;;;;;2.50;1.70;;;21.60;80.90;;;;;;5077095;28;20096;-80
2021/08/30 11:36:44;;;;;;;2.17;1.70;;;21.60;80.70;;;;;;5060115;28;20032;-80
2021/08/30 11:39:13;;;;;;;1.80;1.35;;;21.70;80.20;;;;;;5095041;28;20402;-79
2021/08/30 11:41:39;;;;;;;1.73;1.40;;;21.70;80.10;;;;;;5076441;28;20040;-79
2021/08/30 11:44:05;;;;;;;1.65;1.40;;;21.70;80.00;;;;;;5059633;28;20047;-79
2021/08/30 11:46:50;;;;;;;2.42;1.40;;;21.70;79.90;;;;;;5076250;28;20047;-79
2021/08/30 11:49:17;;;;;;;2.00;1.50;;;21.80;79.90;;;;;;5074000;28;20044;-79
2021/08/30 11:51:44;;;;;;;2.85;1.63;;;21.80;79.80;;;;;;5076210;28;20040;-79
2021/08/30 11:54:17;;;;;;;2.00;1.60;;;21.80;79.60;;;;;;5094267;28;20127;-79
2021/08/30 11:56:52;;;;;;;1.90;1.50;;;21.80;79.60;;;;;;5075880;28;20493;-78
2021/08/30 11:59:27;;;;;;;1.67;1.40;;;21.70;79.40;;;;;;5076060;28;20044;-80
2021/08/30 12:01:53;;;;;;;1.55;1.27;;;21.70;79.50;;;;;;5076646;28;20040;-81
2021/08/30 12:04:19;;;;;;;1.80;1.30;;;21.60;79.80;;;;;;5093803;28;20047;-79
2021/08/30 12:06:51;;;;;;;1.40;1.20;;;21.60;79.80;;;;;;5061302;28;20063;-82
2021/08/30 12:09:17;;;;;;;1.65;1.40;;;21.60;79.90;;;;;;5074449;28;20067;-80
2021/08/30 12:11:49;;;;;;;1.38;1.08;;;21.70;79.90;;;;;;5059469;28;20048;-82
2021/08/30 12:14:15;;;;;;;1.50;1.20;;;21.70;79.70;;;;;;5060863;28;20040;-80
2021/08/30 12:16:44;;;;;;;1.48;1.20;;;21.90;79.30;;;;;;5097720;28;20044;-79
2021/08/30 12:19:10;;;;;;;1.42;1.20;;;22.00;79.10;;;;;;5094495;28;20040;-80
2021/08/30 12:21:38;;;;;;;2.88;1.27;;;22.00;78.60;;;;;;5062250;28;20048;-79
2021/08/30 12:24:06;;;;;;;1.92;1.48;;;22.00;78.40;;;;;;5078135;28;20147;-79
2021/08/30 12:26:34;;;;;;;1.92;1.35;;;22.10;78.50;;;;;;5095616;28;20047;-79
2021/08/30 12:29:00;;;;;;;1.73;1.30;;;22.10;78.40;;;;;;5078752;28;20036;-79
2021/08/30 12:31:30;;;;;;;1.40;1.30;;;22.10;78.30;;;;;;5072911;28;20066;-80
2021/08/30 12:34:07;;;;;;;1.70;1.33;;;22.20;78.20;;;;;;5057101;28;20036;-79
2021/08/30 12:36:34;;;;;;;1.98;1.40;;;22.30;78.00;;;;;;5074009;28;20478;-79
2021/08/30 12:39:00;;;;;;;1.92;1.55;;;22.40;77.70;;;;;;5073376;28;20096;-79
2021/08/30 12:41:26;;;;;;;1.58;1.20;;;22.50;77.60;;;;;;5074137;28;20501;-78
2021/08/30 12:43:52;;;;;;;1.60;1.30;;;22.60;77.30;;;;;;5075628;28;20040;-79
2021/08/30 12:46:18;;;;;;;1.48;1.20;;;22.70;77.20;;;;;;5093609;28;20040;-79
2021/08/30 12:48:44;;;;;;;1.42;1.20;;;22.60;77.00;;;;;;5093646;28;20074;-80
2021/08/30 12:51:10;;;;;;;1.48;1.30;;;22.70;77.10;;;;;;5075503;28;20040;-79
2021/08/30 12:53:37;;;;;;;2.30;1.20;;;22.80;77.00;;;;;;5054928;28;20040;-79
2021/08/30 12:56:03;;;;;;;1.77;1.30;;;22.70;76.70;;;;;;5075638;28;20062;-79
2021/08/30 12:58:29;;;;;;;1.50;1.40;;;22.80;76.50;;;;;;5058617;28;20101;-80
2021/08/30 13:00:55;;;;;;;2.38;1.55;;;22.70;76.30;;;;;;5041833;28;20036;-79